Time;durP1;ratioP1;P1;durP2;ratioP2;P2;SDS_P1;SDS_P2;PMS_P1;PMS_P2;Temp;Humidity;BMP_temperature;BMP_pressure;BME280_temperature;BME280_humidity;BME280_pressure;Samples;Min_cycle;Max_cycle;Signal;HPM_P1;HPM_P2
2021/06/06 00:00:41;;;;;;;3.50;3.17;;;15.50;99.20;;;;;;5017017;28;20737;-66
2021/06/06 00:03:33;;;;;;;3.38;3.08;;;15.60;99.40;;;;;;5019462;28;20479;-66
2021/06/06 00:06:07;;;;;;;3.42;3.13;;;15.60;99.60;;;;;;5016452;28;20080;-66
2021/06/06 00:08:35;;;;;;;4.20;3.80;;;15.60;99.90;;;;;;5018929;28;20145;-66
2021/06/06 00:11:11;;;;;;;4.60;4.15;;;15.60;99.90;;;;;;5019329;28;20084;-66
2021/06/06 00:13:40;;;;;;;4.10;3.42;;;15.50;99.90;;;;;;5017562;28;20044;-66
2021/06/06 00:16:11;;;;;;;3.90;3.60;;;15.60;99.90;;;;;;5018232;28;20045;-66
2021/06/06 00:18:39;;;;;;;4.28;3.88;;;15.60;99.90;;;;;;5017555;28;20565;-66
2021/06/06 00:21:07;;;;;;;6.03;3.38;;;15.60;99.90;;;;;;5017257;28;20122;-66
2021/06/06 00:23:34;;;;;;;6.63;4.43;;;15.70;99.90;;;;;;5015204;28;20148;-66
2021/06/06 00:26:04;;;;;;;3.88;3.55;;;15.80;99.90;;;;;;5018756;28;20076;-66
2021/06/06 00:28:31;;;;;;;6.68;4.15;;;15.80;99.90;;;;;;5019534;28;20049;-66
2021/06/06 00:31:00;;;;;;;3.83;3.53;;;15.80;99.90;;;;;;5016604;28;20041;-66
2021/06/06 00:33:28;;;;;;;5.13;4.13;;;15.90;99.90;;;;;;5031434;28;20146;-66
2021/06/06 00:35:56;;;;;;;4.95;4.45;;;15.80;99.90;;;;;;5016721;28;20450;-66
2021/06/06 00:38:23;;;;;;;3.80;3.45;;;15.80;99.90;;;;;;5018489;28;20049;-65
2021/06/06 00:40:51;;;;;;;6.15;4.13;;;15.80;99.90;;;;;;5016952;28;20550;-66
2021/06/06 00:43:20;;;;;;;5.35;4.85;;;15.80;99.90;;;;;;5018661;28;20041;-66
2021/06/06 00:45:47;;;;;;;5.28;3.72;;;15.80;99.90;;;;;;5019265;28;20045;-66
2021/06/06 00:48:16;;;;;;;4.45;4.15;;;15.80;99.90;;;;;;5017948;28;20044;-66
2021/06/06 00:50:48;;;;;;;4.85;4.03;;;15.70;99.90;;;;;;5017719;28;20562;-66
2021/06/06 00:53:34;;;;;;;5.20;4.80;;;15.80;99.90;;;;;;5052033;28;20053;-66
2021/06/06 00:56:07;;;;;;;4.93;4.43;;;15.80;99.90;;;;;;5007717;28;20743;-66
2021/06/06 00:58:34;;;;;;;5.55;5.10;;;15.70;99.90;;;;;;5045898;28;20056;-66
2021/06/06 01:01:03;;;;;;;5.65;4.20;;;15.80;99.90;;;;;;5013906;28;20060;-66
2021/06/06 01:03:32;;;;;;;5.50;4.28;;;15.70;99.90;;;;;;5013010;28;20423;-66
2021/06/06 01:06:11;;;;;;;5.22;4.25;;;15.60;99.90;;;;;;5048526;28;20454;-66
2021/06/06 01:08:42;;;;;;;5.50;4.40;;;15.60;99.90;;;;;;5047430;28;20061;-66
2021/06/06 01:11:31;;;;;;;4.65;3.63;;;15.60;99.90;;;;;;5016908;28;20041;-66
2021/06/06 01:14:10;;;;;;;4.88;4.40;;;15.60;99.90;;;;;;5047162;28;20141;-65
2021/06/06 01:16:51;;;;;;;6.93;4.55;;;15.50;99.90;;;;;;5018214;28;20414;-66
2021/06/06 01:19:32;;;;;;;4.60;4.20;;;15.50;99.90;;;;;;5013712;28;20663;-66
2021/06/06 01:22:34;;;;;;;5.05;4.28;;;15.60;99.90;;;;;;5012928;28;20170;-65
2021/06/06 01:25:28;;;;;;;4.68;4.28;;;15.50;99.90;;;;;;5003249;28;20060;-66
2021/06/06 01:28:07;;;;;;;5.35;4.95;;;15.50;99.90;;;;;;5001450;28;20049;-66
2021/06/06 01:30:42;;;;;;;6.82;4.45;;;15.50;99.90;;;;;;5030895;28;20092;-66
2021/06/06 01:33:22;;;;;;;5.10;4.60;;;15.40;99.90;;;;;;5011598;28;20538;-66
2021/06/06 01:35:57;;;;;;;4.20;3.90;;;15.40;99.90;;;;;;5011854;28;21372;-66
2021/06/06 01:38:32;;;;;;;6.13;5.13;;;15.40;99.90;;;;;;5014563;28;20197;-66
2021/06/06 01:41:05;;;;;;;5.38;4.35;;;15.40;99.90;;;;;;5011515;28;20364;-66
2021/06/06 01:43:35;;;;;;;4.63;4.15;;;15.40;99.90;;;;;;5010587;28;20503;-65
2021/06/06 01:46:11;;;;;;;4.55;4.13;;;15.50;99.90;;;;;;5014372;28;20055;-66
2021/06/06 01:48:41;;;;;;;5.40;4.90;;;15.50;99.90;;;;;;5014209;28;20247;-66
2021/06/06 01:51:23;;;;;;;4.53;4.13;;;15.50;99.90;;;;;;5030424;28;20162;-66
2021/06/06 01:53:53;;;;;;;4.90;4.40;;;15.40;99.90;;;;;;5028442;28;21529;-66
2021/06/06 01:56:28;;;;;;;4.30;3.90;;;15.50;99.90;;;;;;5048950;28;20115;-66
2021/06/06 01:59:00;;;;;;;4.82;4.43;;;15.50;99.90;;;;;;5030731;28;20063;-65
2021/06/06 02:01:37;;;;;;;5.53;4.85;;;15.50;99.90;;;;;;5030794;28;21295;-65
2021/06/06 02:04:07;;;;;;;3.92;3.63;;;15.40;99.90;;;;;;5018259;28;20071;-66
2021/06/06 02:07:04;;;;;;;5.28;4.40;;;15.40;99.90;;;;;;5018418;28;20478;-65
2021/06/06 02:09:43;;;;;;;5.85;4.65;;;15.40;99.90;;;;;;5032362;28;20126;-65
2021/06/06 02:12:24;;;;;;;6.82;5.47;;;15.40;99.90;;;;;;5016521;28;20063;-66
2021/06/06 02:15:08;;;;;;;7.05;5.05;;;15.50;99.90;;;;;;5018933;28;20132;-66
2021/06/06 02:17:40;;;;;;;5.15;4.75;;;15.50;99.90;;;;;;5031035;28;20507;-65
2021/06/06 02:20:21;;;;;;;5.47;4.97;;;15.40;99.90;;;;;;5034241;28;20079;-66
2021/06/06 02:22:50;;;;;;;4.72;4.28;;;15.40;99.90;;;;;;5049236;28;20065;-65
2021/06/06 02:25:19;;;;;;;5.32;4.30;;;15.50;99.90;;;;;;5017861;28;20045;-65
2021/06/06 02:27:59;;;;;;;5.47;4.80;;;15.50;99.90;;;;;;5013717;28;20045;-65
2021/06/06 02:30:39;;;;;;;5.22;4.22;;;15.60;99.90;;;;;;5018740;28;20053;-65
2021/06/06 02:33:30;;;;;;;4.30;3.90;;;15.60;99.90;;;;;;5013363;28;20052;-66
2021/06/06 02:36:07;;;;;;;4.95;4.45;;;15.60;99.90;;;;;;5008569;28;20054;-66
2021/06/06 02:38:46;;;;;;;8.10;5.32;;;15.60;99.90;;;;;;5011149;28;20046;-66
2021/06/06 02:41:18;;;;;;;6.63;4.70;;;15.70;99.90;;;;;;5009991;28;20160;-65
2021/06/06 02:44:00;;;;;;;5.38;4.35;;;15.70;99.90;;;;;;5028183;28;20053;-66
2021/06/06 02:46:33;;;;;;;4.80;4.45;;;15.80;99.90;;;;;;5011858;28;20092;-66
2021/06/06 02:49:11;;;;;;;5.30;4.80;;;15.80;99.90;;;;;;5046900;28;20041;-66
2021/06/06 02:51:46;;;;;;;4.32;3.92;;;15.90;99.90;;;;;;5007212;28;20048;-65
2021/06/06 02:54:21;;;;;;;5.95;5.45;;;15.90;99.90;;;;;;5019060;28;20455;-65
2021/06/06 02:56:53;;;;;;;9.10;4.47;;;15.90;99.90;;;;;;5017852;28;20091;-66
2021/06/06 02:59:46;;;;;;;4.93;4.50;;;16.00;99.90;;;;;;5018715;28;20136;-65
2021/06/06 03:02:24;;;;;;;7.18;4.32;;;16.00;99.90;;;;;;5015953;28;20041;-65
2021/06/06 03:04:56;;;;;;;4.32;3.92;;;16.00;99.90;;;;;;5017356;28;20037;-65
2021/06/06 03:07:32;;;;;;;4.45;3.85;;;16.10;99.90;;;;;;5018357;28;20137;-65
2021/06/06 03:10:03;;;;;;;5.03;4.53;;;16.10;99.90;;;;;;5014754;28;20050;-65
2021/06/06 03:12:37;;;;;;;5.07;4.60;;;16.10;99.90;;;;;;5018673;28;20045;-65
2021/06/06 03:15:09;;;;;;;4.85;4.45;;;16.20;99.90;;;;;;5016676;28;20069;-65
2021/06/06 03:17:41;;;;;;;4.68;4.28;;;16.20;99.90;;;;;;5015845;28;20041;-65
2021/06/06 03:20:15;;;;;;;7.07;4.43;;;16.20;99.90;;;;;;5048320;28;20309;-66
2021/06/06 03:22:46;;;;;;;4.88;4.30;;;16.30;99.90;;;;;;5018092;28;20676;-65
2021/06/06 03:25:30;;;;;;;4.68;4.28;;;16.30;99.90;;;;;;5016969;28;20045;-66
2021/06/06 03:28:02;;;;;;;4.85;4.38;;;16.40;99.90;;;;;;5016458;28;21088;-65
2021/06/06 03:30:40;;;;;;;4.85;4.38;;;16.40;99.90;;;;;;5048583;28;20049;-65
2021/06/06 03:33:18;;;;;;;3.95;3.55;;;16.50;99.90;;;;;;5021853;28;20430;-65
2021/06/06 03:35:46;;;;;;;4.63;4.32;;;16.50;99.90;;;;;;5018119;28;20136;-65
2021/06/06 03:38:15;;;;;;;4.82;4.43;;;16.50;99.90;;;;;;5019264;28;20059;-65
2021/06/06 03:40:46;;;;;;;4.25;3.88;;;16.50;99.90;;;;;;5022012;28;20075;-65
2021/06/06 03:43:28;;;;;;;4.85;4.25;;;16.60;99.90;;;;;;5018110;28;20056;-66
2021/06/06 03:45:55;;;;;;;4.97;4.53;;;16.60;99.90;;;;;;5021856;28;20049;-65
2021/06/06 03:48:22;;;;;;;4.25;3.95;;;16.50;99.90;;;;;;5019671;28;20059;-65
2021/06/06 03:50:52;;;;;;;4.38;3.97;;;16.50;99.90;;;;;;5020069;28;20057;-65
2021/06/06 03:53:24;;;;;;;8.10;4.60;;;16.60;99.90;;;;;;5052630;28;20167;-65
2021/06/06 03:55:54;;;;;;;7.20;5.40;;;16.50;99.90;;;;;;5051437;28;20115;-66
2021/06/06 03:58:23;;;;;;;5.20;4.72;;;16.50;99.90;;;;;;5017789;28;20160;-65
2021/06/06 04:00:51;;;;;;;6.30;4.88;;;16.50;99.90;;;;;;5020406;28;20122;-65
2021/06/06 04:03:18;;;;;;;4.78;4.03;;;16.40;99.90;;;;;;5018236;28;20049;-65
2021/06/06 04:05:47;;;;;;;11.00;4.55;;;16.40;99.90;;;;;;5018939;28;20155;-65
2021/06/06 04:08:22;;;;;;;5.63;4.65;;;16.40;99.90;;;;;;5018820;28;20101;-65
2021/06/06 04:10:57;;;;;;;4.88;4.38;;;16.40;99.90;;;;;;5050806;28;20097;-65
2021/06/06 04:13:26;;;;;;;6.18;5.60;;;16.40;99.90;;;;;;5024016;28;20048;-65
2021/06/06 04:15:54;;;;;;;9.18;5.22;;;16.40;99.90;;;;;;5018479;28;20064;-66
2021/06/06 04:18:27;;;;;;;5.85;4.97;;;16.40;99.90;;;;;;5020664;28;20053;-65
2021/06/06 04:20:59;;;;;;;5.00;4.60;;;16.40;99.90;;;;;;5034581;28;20054;-65
2021/06/06 04:23:28;;;;;;;5.78;5.38;;;16.40;99.90;;;;;;5017601;28;20053;-65
2021/06/06 04:25:58;;;;;;;4.72;4.32;;;16.40;99.90;;;;;;5034628;28;20820;-66
2021/06/06 04:28:27;;;;;;;4.93;4.53;;;16.40;99.90;;;;;;5019000;28;20494;-65
2021/06/06 04:31:00;;;;;;;9.23;7.35;;;16.40;99.90;;;;;;5018234;28;20065;-65
2021/06/06 04:33:30;;;;;;;5.22;4.78;;;16.40;99.90;;;;;;5017616;28;20049;-65
2021/06/06 04:35:57;;;;;;;5.95;5.40;;;16.40;99.90;;;;;;5020098;28;20053;-65
2021/06/06 04:38:28;;;;;;;6.28;5.13;;;16.40;99.90;;;;;;5051273;28;20052;-65
2021/06/06 04:41:00;;;;;;;5.22;4.72;;;16.40;99.90;;;;;;5014896;28;20132;-65
2021/06/06 04:43:28;;;;;;;6.32;5.15;;;16.40;99.90;;;;;;5018091;28;20148;-66
2021/06/06 04:45:58;;;;;;;5.88;5.38;;;16.40;99.90;;;;;;5052249;28;20076;-65
2021/06/06 04:48:47;;;;;;;7.97;4.80;;;16.40;99.90;;;;;;5014803;28;20048;-65
2021/06/06 04:51:22;;;;;;;5.55;4.85;;;16.40;99.90;;;;;;5020312;28;20041;-65
2021/06/06 04:53:58;;;;;;;5.68;4.13;;;16.40;99.90;;;;;;5033577;28;20065;-65
2021/06/06 04:56:27;;;;;;;7.05;5.55;;;16.40;99.90;;;;;;5019704;28;20194;-65
2021/06/06 04:58:57;;;;;;;5.43;5.03;;;16.40;99.90;;;;;;5034651;28;20045;-65
2021/06/06 05:01:27;;;;;;;9.52;4.60;;;16.40;99.90;;;;;;5048410;28;20045;-66
2021/06/06 05:03:54;;;;;;;9.75;6.18;;;16.40;99.90;;;;;;5017213;28;20111;-65
2021/06/06 05:06:23;;;;;;;5.45;5.05;;;16.40;99.90;;;;;;5016413;28;20630;-65
2021/06/06 05:08:54;;;;;;;5.18;4.78;;;16.40;99.90;;;;;;5013430;28;20079;-65
2021/06/06 05:11:24;;;;;;;5.32;4.82;;;16.40;99.90;;;;;;5015182;28;20038;-65
2021/06/06 05:13:52;;;;;;;5.45;4.85;;;16.50;99.90;;;;;;5047829;28;20056;-65
2021/06/06 05:16:21;;;;;;;8.35;5.97;;;16.50;99.90;;;;;;5017509;28;20042;-65
2021/06/06 05:18:48;;;;;;;5.65;5.15;;;16.50;99.90;;;;;;5050140;28;20045;-65
2021/06/06 05:21:16;;;;;;;5.65;5.25;;;16.50;99.90;;;;;;5016362;28;20052;-65
2021/06/06 05:23:44;;;;;;;5.53;5.13;;;16.50;99.90;;;;;;5015690;28;20553;-65
2021/06/06 05:26:15;;;;;;;8.32;5.25;;;16.50;99.90;;;;;;5016219;28;20058;-65
2021/06/06 05:28:45;;;;;;;5.90;5.40;;;16.50;99.90;;;;;;5018513;28;20054;-65
2021/06/06 05:31:14;;;;;;;6.43;5.93;;;16.50;99.90;;;;;;5018002;28;20054;-65
2021/06/06 05:33:41;;;;;;;5.78;5.28;;;16.50;99.90;;;;;;5015822;28;20064;-65
2021/06/06 05:36:08;;;;;;;5.95;5.45;;;16.50;99.90;;;;;;5018828;28;20116;-65
2021/06/06 05:38:36;;;;;;;6.28;5.53;;;16.50;99.90;;;;;;5016955;28;20495;-65
2021/06/06 05:41:05;;;;;;;5.55;5.15;;;16.40;99.90;;;;;;5017851;28;20080;-65
2021/06/06 05:43:36;;;;;;;6.10;5.50;;;16.40;99.90;;;;;;5030867;28;20560;-65
2021/06/06 05:46:04;;;;;;;6.78;6.18;;;16.50;99.90;;;;;;5019486;28;20522;-65
2021/06/06 05:48:30;;;;;;;5.57;5.07;;;16.50;99.90;;;;;;5017409;28;20053;-65
2021/06/06 05:51:01;;;;;;;6.20;5.65;;;16.50;99.90;;;;;;5018301;28;20061;-65
2021/06/06 05:53:45;;;;;;;7.40;5.85;;;16.50;99.90;;;;;;5015480;28;20064;-65
2021/06/06 05:56:12;;;;;;;6.25;5.75;;;16.50;99.90;;;;;;5016585;28;20103;-65
2021/06/06 05:58:40;;;;;;;5.45;4.97;;;16.50;99.90;;;;;;5018864;28;20080;-66
2021/06/06 06:01:08;;;;;;;7.90;6.47;;;16.50;99.90;;;;;;5016623;28;20054;-65
2021/06/06 06:03:36;;;;;;;7.55;5.47;;;16.50;99.90;;;;;;5016053;28;20108;-65
2021/06/06 06:06:05;;;;;;;5.78;5.32;;;16.60;99.90;;;;;;5015663;28;20069;-65
2021/06/06 06:08:41;;;;;;;7.03;6.10;;;16.50;99.90;;;;;;5017299;28;20098;-66
2021/06/06 06:11:16;;;;;;;5.90;5.28;;;16.50;99.90;;;;;;5014359;28;20111;-65
2021/06/06 06:13:44;;;;;;;7.07;6.40;;;16.60;99.90;;;;;;5016951;28;20140;-65
2021/06/06 06:16:22;;;;;;;6.28;5.78;;;16.60;99.90;;;;;;5014318;28;20083;-65
2021/06/06 06:18:50;;;;;;;;;;;16.60;99.90;;;;;;5015055;28;20422;-65
2021/06/06 06:21:19;;;;;;;6.63;6.03;;;16.60;99.90;;;;;;5015414;28;20345;-66
2021/06/06 06:23:46;;;;;;;8.20;6.00;;;16.60;99.90;;;;;;5012537;28;20816;-65
2021/06/06 06:26:17;;;;;;;7.35;6.47;;;16.60;99.90;;;;;;5015258;28;20053;-65
2021/06/06 06:28:52;;;;;;;6.82;6.25;;;16.50;99.90;;;;;;5030599;28;20160;-65
2021/06/06 06:31:38;;;;;;;6.82;5.78;;;16.50;99.90;;;;;;5013839;28;21425;-65
2021/06/06 06:34:10;;;;;;;7.03;5.82;;;16.50;99.90;;;;;;5013166;28;20044;-65
2021/06/06 06:36:36;;;;;;;7.65;6.78;;;16.50;99.90;;;;;;5015332;28;20041;-65
2021/06/06 06:39:05;;;;;;;8.30;7.57;;;16.50;99.90;;;;;;5014500;28;20088;-65
2021/06/06 06:41:34;;;;;;;5.97;5.45;;;16.40;99.90;;;;;;5014534;28;20118;-65
2021/06/06 06:44:02;;;;;;;6.72;6.05;;;16.40;99.90;;;;;;5016182;28;20053;-65
2021/06/06 06:46:29;;;;;;;8.35;6.72;;;16.50;99.90;;;;;;5015933;28;20045;-65
2021/06/06 06:48:56;;;;;;;6.93;6.30;;;16.40;99.90;;;;;;5016076;28;20076;-65
2021/06/06 06:51:24;;;;;;;7.55;6.95;;;16.40;99.90;;;;;;5015985;28;20263;-65
2021/06/06 06:53:54;;;;;;;6.70;6.13;;;16.30;99.90;;;;;;5014995;28;20144;-65
2021/06/06 06:56:26;;;;;;;6.75;5.68;;;16.30;99.90;;;;;;5015900;28;20135;-66
2021/06/06 06:58:55;;;;;;;7.43;6.20;;;16.30;99.90;;;;;;5016450;28;20053;-65
2021/06/06 07:01:23;;;;;;;6.93;5.95;;;16.30;99.90;;;;;;5015049;28;20545;-65
2021/06/06 07:03:51;;;;;;;5.85;5.45;;;16.30;99.90;;;;;;5015354;28;20052;-65
2021/06/06 07:06:19;;;;;;;8.02;6.45;;;16.40;99.90;;;;;;5018830;28;20188;-65
2021/06/06 07:08:47;;;;;;;6.40;5.90;;;16.50;99.90;;;;;;5020419;28;20465;-65
2021/06/06 07:11:18;;;;;;;6.60;6.07;;;16.70;99.90;;;;;;5019896;28;20045;-66
2021/06/06 07:13:46;;;;;;;6.32;5.80;;;16.70;99.90;;;;;;5019066;28;20049;-66
2021/06/06 07:16:15;;;;;;;6.45;5.95;;;16.70;99.90;;;;;;5018297;28;20049;-65
2021/06/06 07:18:42;;;;;;;6.80;6.30;;;16.70;99.90;;;;;;5020099;28;20057;-65
2021/06/06 07:21:15;;;;;;;6.43;5.82;;;16.60;99.90;;;;;;5018622;28;20077;-65
2021/06/06 07:23:42;;;;;;;7.43;6.35;;;16.60;99.90;;;;;;5018112;28;20057;-65
2021/06/06 07:26:32;;;;;;;7.60;7.00;;;16.70;99.90;;;;;;5017585;28;20487;-65
2021/06/06 07:29:02;;;;;;;6.25;5.57;;;16.90;99.90;;;;;;5019003;28;20079;-65
2021/06/06 07:31:29;;;;;;;7.38;6.78;;;17.10;99.90;;;;;;5018140;28;20107;-65
2021/06/06 07:34:12;;;;;;;7.15;6.55;;;17.20;99.90;;;;;;5018561;28;20048;-65
2021/06/06 07:36:41;;;;;;;6.45;5.95;;;17.20;99.90;;;;;;5018455;28;20431;-65
2021/06/06 07:39:08;;;;;;;8.38;7.50;;;17.20;99.90;;;;;;5013877;28;20096;-65
2021/06/06 07:41:35;;;;;;;6.68;6.07;;;17.20;99.90;;;;;;5018175;28;20045;-65
2021/06/06 07:44:03;;;;;;;6.97;6.40;;;17.20;99.90;;;;;;5017767;28;20046;-65
2021/06/06 07:46:30;;;;;;;6.95;6.30;;;17.20;99.90;;;;;;5019955;28;20042;-65
2021/06/06 07:48:59;;;;;;;7.65;6.55;;;17.00;99.90;;;;;;5018625;28;20072;-65
2021/06/06 07:51:27;;;;;;;7.65;7.05;;;17.10;99.90;;;;;;5019726;28;20073;-65
2021/06/06 07:53:54;;;;;;;6.72;6.13;;;17.20;99.90;;;;;;5017104;28;20061;-65
2021/06/06 07:56:21;;;;;;;9.63;7.47;;;17.10;99.90;;;;;;5019561;28;20112;-65
2021/06/06 07:58:49;;;;;;;7.68;6.95;;;17.10;99.90;;;;;;5018286;28;20050;-65
2021/06/06 08:01:16;;;;;;;6.75;6.18;;;17.00;99.90;;;;;;5018525;28;20360;-65
2021/06/06 08:03:44;;;;;;;7.13;6.53;;;17.00;99.90;;;;;;5017169;28;20053;-65
2021/06/06 08:06:11;;;;;;;6.60;6.07;;;17.10;99.90;;;;;;5018380;28;20049;-66
2021/06/06 08:08:39;;;;;;;6.85;6.20;;;17.00;99.90;;;;;;5019254;28;20045;-65
2021/06/06 08:11:08;;;;;;;7.22;6.55;;;16.90;99.90;;;;;;5019574;28;20096;-65
2021/06/06 08:13:36;;;;;;;7.22;6.38;;;16.80;99.90;;;;;;5016771;28;21409;-65
2021/06/06 08:16:05;;;;;;;7.30;6.65;;;16.80;99.90;;;;;;5018840;28;20196;-65
2021/06/06 08:18:38;;;;;;;8.02;6.15;;;16.80;99.90;;;;;;5017774;28;20056;-65
2021/06/06 08:21:12;;;;;;;9.38;8.48;;;16.60;99.90;;;;;;5018986;28;20087;-65
2021/06/06 08:23:41;;;;;;;7.90;7.25;;;16.60;99.90;;;;;;5016998;28;20414;-65
2021/06/06 08:26:09;;;;;;;7.35;6.85;;;16.60;99.90;;;;;;5018080;28;20050;-65
2021/06/06 08:28:36;;;;;;;7.50;6.88;;;16.60;99.90;;;;;;5017945;28;20186;-66
2021/06/06 08:31:07;;;;;;;10.80;6.28;;;16.60;99.90;;;;;;5018455;28;20106;-65
2021/06/06 08:33:35;;;;;;;7.78;6.95;;;16.60;99.90;;;;;;5017160;28;20084;-65
2021/06/06 08:36:24;;;;;;;6.82;6.28;;;16.70;99.90;;;;;;5018179;28;20048;-65
2021/06/06 08:38:52;;;;;;;8.18;7.40;;;16.70;99.90;;;;;;5018081;28;20045;-65
2021/06/06 08:41:48;;;;;;;9.70;7.45;;;16.70;99.90;;;;;;5017469;28;20099;-65
2021/06/06 08:44:19;;;;;;;8.95;6.57;;;16.90;99.90;;;;;;5013191;28;20134;-65
2021/06/06 08:46:52;;;;;;;7.70;6.90;;;16.90;99.90;;;;;;5017002;28;20053;-66
2021/06/06 08:49:19;;;;;;;7.32;6.82;;;16.90;99.90;;;;;;5018523;28;20793;-65
2021/06/06 08:51:50;;;;;;;8.95;7.55;;;16.90;99.90;;;;;;5046711;28;20069;-65
2021/06/06 08:54:49;;;;;;;6.30;5.82;;;17.10;99.90;;;;;;5018840;28;21579;-65
2021/06/06 08:57:51;;;;;;;7.30;6.68;;;17.20;99.90;;;;;;5016922;28;21136;-65
2021/06/06 09:00:26;;;;;;;7.43;6.70;;;17.10;99.90;;;;;;5017630;28;20192;-66
2021/06/06 09:02:59;;;;;;;7.22;6.65;;;17.30;99.90;;;;;;5017853;28;20260;-65
2021/06/06 09:05:31;;;;;;;8.45;7.32;;;17.40;99.90;;;;;;5016858;28;20046;-67
2021/06/06 09:08:00;;;;;;;6.50;6.00;;;17.40;99.90;;;;;;5015996;28;20110;-65
2021/06/06 09:10:41;;;;;;;8.23;7.30;;;17.50;99.90;;;;;;5017386;28;20041;-65
2021/06/06 09:13:12;;;;;;;8.52;7.80;;;17.60;99.90;;;;;;5018490;28;20046;-65
2021/06/06 09:15:40;;;;;;;7.07;6.55;;;17.60;99.90;;;;;;5016072;28;20145;-65
2021/06/06 09:18:24;;;;;;;7.13;6.40;;;17.70;99.90;;;;;;5018529;28;20069;-65
2021/06/06 09:20:52;;;;;;;8.02;7.32;;;17.70;99.90;;;;;;5017468;28;20041;-65
2021/06/06 09:23:19;;;;;;;6.93;6.43;;;17.60;99.90;;;;;;5031600;28;20045;-65
2021/06/06 09:26:00;;;;;;;7.57;6.97;;;17.60;99.90;;;;;;5014817;28;20106;-66
2021/06/06 09:28:29;;;;;;;7.47;6.78;;;17.40;99.90;;;;;;5016855;28;20049;-65
2021/06/06 09:31:01;;;;;;;7.35;6.22;;;17.10;99.90;;;;;;5015635;28;20211;-65
2021/06/06 09:33:35;;;;;;;7.80;7.20;;;17.30;99.90;;;;;;5015507;28;20037;-66
2021/06/06 09:36:23;;;;;;;7.85;7.15;;;17.40;99.90;;;;;;5017170;28;20053;-65
2021/06/06 09:38:54;;;;;;;8.40;7.55;;;17.30;99.90;;;;;;5018329;28;20046;-65
2021/06/06 09:41:33;;;;;;;7.72;7.05;;;17.20;99.90;;;;;;5015958;28;20103;-65
2021/06/06 09:44:03;;;;;;;6.45;5.93;;;17.30;99.90;;;;;;5014914;28;20067;-66
2021/06/06 09:46:36;;;;;;;8.30;7.50;;;17.30;99.90;;;;;;5014476;28;20053;-65
2021/06/06 09:49:21;;;;;;;8.05;7.35;;;17.30;99.90;;;;;;5013746;28;20150;-65
2021/06/06 09:51:49;;;;;;;7.95;7.15;;;17.20;99.90;;;;;;5014426;28;20049;-65
2021/06/06 09:54:25;;;;;;;7.38;5.65;;;17.10;99.90;;;;;;5014619;28;22098;-65
2021/06/06 09:56:55;;;;;;;6.05;5.47;;;17.00;99.90;;;;;;5016801;28;20076;-65
2021/06/06 09:59:35;;;;;;;6.40;5.25;;;17.10;99.90;;;;;;5016178;28;20057;-65
2021/06/06 10:02:10;;;;;;;6.13;5.63;;;17.30;99.90;;;;;;5015566;28;20191;-65
2021/06/06 10:04:41;;;;;;;5.85;5.35;;;17.60;99.90;;;;;;5017675;28;20101;-65
2021/06/06 10:07:14;;;;;;;6.45;5.85;;;17.80;99.90;;;;;;5016366;28;20057;-65
2021/06/06 10:09:50;;;;;;;5.78;5.28;;;17.90;99.90;;;;;;5015800;28;20049;-65
2021/06/06 10:12:26;;;;;;;5.72;5.22;;;17.90;99.90;;;;;;5016615;28;20064;-65
2021/06/06 10:15:03;;;;;;;4.88;4.45;;;18.00;99.90;;;;;;5015927;28;20049;-65
2021/06/06 10:18:09;;;;;;;4.60;4.28;;;17.90;99.90;;;;;;5015291;28;20054;-65
2021/06/06 10:20:39;;;;;;;4.65;4.22;;;17.90;99.90;;;;;;5007976;28;20127;-65
2021/06/06 10:23:29;;;;;;;3.47;3.25;;;18.00;99.90;;;;;;5016159;28;20049;-65
2021/06/06 10:26:07;;;;;;;4.75;4.25;;;18.30;99.90;;;;;;5014672;28;20050;-65
2021/06/06 10:28:40;;;;;;;3.92;3.53;;;18.50;99.90;;;;;;5016803;28;20137;-65
2021/06/06 10:31:12;;;;;;;4.80;3.65;;;18.60;99.90;;;;;;5015403;28;20172;-65
2021/06/06 10:33:45;;;;;;;4.72;4.22;;;18.70;99.90;;;;;;5015342;28;20052;-65
2021/06/06 10:36:15;;;;;;;8.32;4.38;;;18.90;99.90;;;;;;5015853;28;20053;-65
2021/06/06 10:38:42;;;;;;;4.35;3.65;;;18.50;99.90;;;;;;5016292;28;20131;-65
2021/06/06 10:41:18;;;;;;;5.97;3.63;;;18.40;99.90;;;;;;5019151;28;20849;-66
2021/06/06 10:43:48;;;;;;;4.50;3.88;;;18.50;99.90;;;;;;5049942;28;20056;-65
2021/06/06 10:46:38;;;;;;;3.90;3.60;;;18.40;99.90;;;;;;5019795;28;20056;-66
2021/06/06 10:49:19;;;;;;;3.83;3.53;;;18.50;99.90;;;;;;5021458;28;20137;-65
2021/06/06 10:51:57;;;;;;;8.50;4.25;;;18.50;99.90;;;;;;5015213;28;21641;-65
2021/06/06 10:54:33;;;;;;;4.00;3.63;;;18.20;99.90;;;;;;5018780;28;20076;-66
2021/06/06 10:57:29;;;;;;;4.93;4.38;;;18.20;99.90;;;;;;5020731;28;20041;-65
2021/06/06 11:00:05;;;;;;;5.53;5.03;;;18.40;99.90;;;;;;5017974;28;20489;-65
2021/06/06 11:03:19;;;;;;;4.45;4.05;;;18.20;99.90;;;;;;5021584;28;20113;-66
2021/06/06 11:05:48;;;;;;;6.95;3.78;;;17.90;99.90;;;;;;5019017;28;20058;-65
2021/06/06 11:08:40;;;;;;;4.10;3.70;;;17.90;99.90;;;;;;5019470;28;20252;-65
2021/06/06 11:11:09;;;;;;;3.75;3.45;;;18.10;99.90;;;;;;5020743;28;20080;-65
2021/06/06 11:13:39;;;;;;;4.18;3.78;;;18.30;99.90;;;;;;5017612;28;20061;-66
2021/06/06 11:16:17;;;;;;;5.72;3.88;;;18.40;99.90;;;;;;5020721;28;20053;-65
2021/06/06 11:19:00;;;;;;;4.35;3.95;;;18.40;99.90;;;;;;5018679;28;20414;-65
2021/06/06 11:21:39;;;;;;;5.20;4.20;;;18.30;99.90;;;;;;5018566;28;20049;-65
2021/06/06 11:24:39;;;;;;;4.45;3.90;;;17.90;99.90;;;;;;5018330;28;20136;-66
2021/06/06 11:27:11;;;;;;;4.73;4.07;;;18.00;99.90;;;;;;5019288;28;20085;-66
2021/06/06 11:29:56;;;;;;;5.20;4.70;;;17.90;99.90;;;;;;5019092;28;21339;-66
2021/06/06 11:32:46;;;;;;;4.28;3.88;;;17.40;99.90;;;;;;5018471;28;20146;-66
2021/06/06 11:35:25;;;;;;;5.88;4.82;;;17.40;99.90;;;;;;5019818;28;20060;-65
2021/06/06 11:37:58;;;;;;;4.70;3.88;;;17.30;99.90;;;;;;5018326;28;20096;-65
2021/06/06 11:40:47;;;;;;;4.75;4.35;;;17.30;99.90;;;;;;5016509;28;20057;-65
2021/06/06 11:43:24;;;;;;;4.68;4.28;;;17.40;99.90;;;;;;5020927;28;20045;-65
2021/06/06 11:45:54;;;;;;;5.10;3.63;;;17.40;99.90;;;;;;5017916;28;20483;-66
2021/06/06 11:48:23;;;;;;;8.27;4.40;;;17.50;99.90;;;;;;5017197;28;20057;-66
2021/06/06 11:50:54;;;;;;;3.97;3.35;;;17.80;99.90;;;;;;5019415;28;20049;-65
2021/06/06 11:53:30;;;;;;;5.63;4.18;;;18.10;99.90;;;;;;5016379;28;20055;-66
2021/06/06 11:56:30;;;;;;;5.80;3.10;;;18.20;99.90;;;;;;5015236;28;20135;-65
2021/06/06 11:59:09;;;;;;;;;;;18.20;99.90;;;;;;5019575;28;20150;-65
2021/06/06 12:01:49;;;;;;;4.03;3.58;;;17.90;99.90;;;;;;5016793;28;19960;-66
2021/06/06 12:04:27;;;;;;;6.88;3.50;;;17.60;99.90;;;;;;5051249;28;20059;-66
2021/06/06 12:06:54;;;;;;;4.28;3.75;;;17.70;99.90;;;;;;5018264;28;20098;-66
2021/06/06 12:09:33;;;;;;;3.78;3.47;;;18.10;99.90;;;;;;5020225;28;20099;-65
2021/06/06 12:12:33;;;;;;;4.53;3.33;;;18.30;99.90;;;;;;5017671;28;20045;-65
2021/06/06 12:15:46;;;;;;;4.78;3.60;;;18.60;99.90;;;;;;5018685;28;20136;-65
2021/06/06 12:18:22;;;;;;;4.97;4.57;;;18.60;99.90;;;;;;5017779;28;20053;-66
2021/06/06 12:20:58;;;;;;;3.83;3.50;;;18.30;99.90;;;;;;5017983;28;20100;-65
2021/06/06 12:23:34;;;;;;;4.25;2.95;;;18.40;99.90;;;;;;5018925;28;20152;-65
2021/06/06 12:26:17;;;;;;;4.78;3.88;;;18.10;99.90;;;;;;5018299;28;20061;-65
2021/06/06 12:28:50;;;;;;;3.83;3.53;;;18.10;99.90;;;;;;5018007;28;20053;-65
2021/06/06 12:31:23;;;;;;;3.63;3.33;;;17.90;99.90;;;;;;5019032;28;20099;-66
2021/06/06 12:33:50;;;;;;;4.38;3.22;;;18.00;99.90;;;;;;5016527;28;20080;-65
2021/06/06 12:36:27;;;;;;;4.10;3.08;;;18.30;99.90;;;;;;5018637;28;20664;-65
2021/06/06 12:38:57;;;;;;;3.38;2.55;;;18.40;99.90;;;;;;5016909;28;20064;-65
2021/06/06 12:41:26;;;;;;;4.50;3.40;;;18.50;99.90;;;;;;5018575;28;20477;-65
2021/06/06 12:43:56;;;;;;;3.65;3.35;;;18.80;99.90;;;;;;5014630;28;20096;-65
2021/06/06 12:46:25;;;;;;;3.15;2.85;;;18.80;99.90;;;;;;5018698;28;20880;-65
2021/06/06 12:49:00;;;;;;;6.60;3.00;;;18.90;99.90;;;;;;5017782;28;20298;-65
2021/06/06 12:51:35;;;;;;;10.02;3.53;;;19.20;99.90;;;;;;5047649;28;20065;-66
2021/06/06 12:54:27;;;;;;;4.05;2.92;;;19.40;99.90;;;;;;5017931;28;20057;-65
2021/06/06 12:57:09;;;;;;;3.80;2.70;;;19.60;99.90;;;;;;5016764;28;20139;-65
2021/06/06 12:59:39;;;;;;;3.50;2.75;;;19.40;99.90;;;;;;5013693;28;20079;-65
2021/06/06 13:02:20;;;;;;;2.50;2.30;;;19.40;99.30;;;;;;5016904;28;20080;-65
2021/06/06 13:05:03;;;;;;;2.75;2.55;;;19.70;98.30;;;;;;5018117;28;20080;-65
2021/06/06 13:07:34;;;;;;;3.08;2.83;;;20.00;97.90;;;;;;5014811;28;20049;-65
2021/06/06 13:10:06;;;;;;;5.05;2.78;;;20.00;98.10;;;;;;5019898;28;20147;-65
2021/06/06 13:12:41;;;;;;;4.43;3.58;;;20.10;97.90;;;;;;5017587;28;20220;-65
2021/06/06 13:15:19;;;;;;;3.00;2.70;;;20.20;96.80;;;;;;5019576;28;20060;-64
2021/06/06 13:17:49;;;;;;;4.60;3.05;;;20.40;96.30;;;;;;5015329;28;22755;-65
2021/06/06 13:20:30;;;;;;;4.40;2.72;;;20.70;95.80;;;;;;5019147;28;20072;-66
2021/06/06 13:23:22;;;;;;;2.42;2.22;;;20.90;95.20;;;;;;5015612;28;20081;-65